Time;durP1;ratioP1;P1;durP2;ratioP2;P2;SDS_P1;SDS_P2;PMS_P1;PMS_P2;Temp;Humidity;BMP_temperature;BMP_pressure;BME280_temperature;BME280_humidity;BME280_pressure;Samples;Min_cycle;Max_cycle;Signal;HPM_P1;HPM_P2
2021/08/26 00:07:20;;;;;;;41.90;39.13;;;;;;;19.76;100.00;100710.59;4990672;28;20054;-79
2021/08/26 00:09:47;;;;;;;46.80;43.90;;;;;;;19.95;100.00;100710.91;4996976;28;20054;-78
2021/08/26 00:12:14;;;;;;;39.78;37.17;;;;;;;19.99;100.00;100715.47;4991656;28;20046;-77
2021/08/26 00:14:41;;;;;;;42.78;39.92;;;;;;;19.65;100.00;100713.28;4996499;28;20145;-78
2021/08/26 00:17:09;;;;;;;43.38;40.38;;;;;;;19.59;100.00;100716.19;4994514;28;20055;-79
2021/08/26 00:19:38;;;;;;;44.10;41.00;;;;;;;19.54;100.00;100711.59;4988292;28;20097;-78
2021/08/26 00:22:05;;;;;;;44.45;41.15;;;;;;;19.68;100.00;100707.34;4984246;28;20053;-79
2021/08/26 00:24:32;;;;;;;44.55;40.92;;;;;;;19.64;100.00;100703.59;4996659;28;20057;-79
2021/08/26 00:26:58;;;;;;;43.30;40.30;;;;;;;19.72;100.00;100702.25;4994541;28;20421;-80
2021/08/26 00:29:25;;;;;;;46.17;42.88;;;;;;;19.56;100.00;100705.97;4985903;28;20058;-81
2021/08/26 00:31:52;;;;;;;43.28;39.97;;;;;;;19.80;100.00;100699.03;4987927;28;20050;-78
2021/08/26 00:34:19;;;;;;;40.85;37.75;;;;;;;19.80;100.00;100707.13;4991588;28;20110;-77
2021/08/26 00:36:47;;;;;;;44.65;41.58;;;;;;;19.75;100.00;100704.41;4996482;28;20054;-77
2021/08/26 00:39:14;;;;;;;42.92;39.65;;;;;;;19.79;100.00;100702.81;4996099;28;20794;-78
2021/08/26 00:41:43;;;;;;;43.20;40.20;;;;;;;19.77;100.00;100702.25;4990781;28;20502;-78
2021/08/26 00:44:09;;;;;;;45.08;41.78;;;;;;;19.80;100.00;100696.34;4991862;28;20055;-80
2021/08/26 00:46:38;;;;;;;44.60;41.25;;;;;;;19.61;100.00;100717.56;4996250;28;20054;-80
2021/08/26 00:49:07;;;;;;;47.10;43.80;;;;;;;19.57;100.00;100711.06;4996446;28;20046;-77
2021/08/26 00:51:35;;;;;;;47.85;44.15;;;;;;;19.52;100.00;100711.06;4996028;28;20495;-78
2021/08/26 00:54:03;;;;;;;47.60;44.00;;;;;;;19.64;100.00;100717.06;4996183;28;20198;-77
2021/08/26 00:56:30;;;;;;;43.90;40.40;;;;;;;19.67;100.00;100711.13;4982972;28;20046;-77
2021/08/26 00:59:00;;;;;;;47.20;43.60;;;;;;;19.65;100.00;100710.59;4993063;28;20045;-77
2021/08/26 01:01:31;;;;;;;52.85;49.08;;;;;;;19.62;100.00;100712.97;4993858;28;20058;-78
2021/08/26 01:04:00;;;;;;;46.22;42.65;;;;;;;19.71;100.00;100706.03;4995887;28;20148;-79
2021/08/26 01:06:34;;;;;;;48.35;44.90;;;;;;;19.67;100.00;100705.75;4995870;28;20136;-79
2021/08/26 01:09:05;;;;;;;47.72;43.75;;;;;;;19.60;100.00;100712.41;4990592;28;20475;-78
2021/08/26 01:11:35;;;;;;;51.67;47.67;;;;;;;19.40;100.00;100708.63;4986128;28;20077;-77
2021/08/26 01:14:03;;;;;;;49.00;45.30;;;;;;;19.36;100.00;100712.09;4993861;28;20042;-78
2021/08/26 01:16:30;;;;;;;57.88;53.63;;;;;;;19.48;100.00;100719.94;4990346;28;20053;-77
2021/08/26 01:18:57;;;;;;;54.30;50.42;;;;;;;19.34;100.00;100711.56;4989178;28;20061;-78
2021/08/26 01:21:25;;;;;;;58.17;54.08;;;;;;;19.50;100.00;100710.53;4995740;28;20061;-78
2021/08/26 01:23:57;;;;;;;51.72;48.03;;;;;;;19.54;100.00;100714.28;4987920;28;20053;-80
2021/08/26 01:26:30;;;;;;;51.22;47.40;;;;;;;19.49;100.00;100711.59;4988740;28;20049;-79
2021/08/26 01:29:00;;;;;;;60.40;56.00;;;;;;;19.33;100.00;100713.41;4990193;28;20050;-80
2021/08/26 01:31:27;;;;;;;47.42;43.72;;;;;;;19.51;100.00;100709.44;4994081;28;20062;-79
2021/08/26 01:33:55;;;;;;;52.00;48.15;;;;;;;19.43;100.00;100710.78;4993418;28;20046;-77
2021/08/26 01:36:23;;;;;;;49.70;46.05;;;;;;;19.51;100.00;100708.63;4989512;28;20046;-78
2021/08/26 01:38:51;;;;;;;50.42;46.72;;;;;;;19.39;100.00;100698.09;4991465;28;20051;-78
2021/08/26 01:41:19;;;;;;;55.97;51.88;;;;;;;19.35;100.00;100702.41;4989713;28;20446;-77
2021/08/26 01:43:48;;;;;;;54.28;50.30;;;;;;;19.22;100.00;100703.72;4991171;28;20050;-77
2021/08/26 01:46:16;;;;;;;59.50;54.83;;;;;;;19.28;100.00;100704.53;4991099;28;20042;-77
2021/08/26 01:48:45;;;;;;;54.67;50.88;;;;;;;19.42;100.00;100697.56;4992746;28;20062;-79
2021/08/26 01:51:12;;;;;;;49.95;46.22;;;;;;;19.46;100.00;100695.97;4991317;28;20397;-78
2021/08/26 01:53:38;;;;;;;55.13;51.22;;;;;;;19.28;100.00;100702.66;4987810;28;20054;-78
2021/08/26 01:56:06;;;;;;;52.75;48.75;;;;;;;19.06;100.00;100705.50;4992689;28;20054;-78
2021/08/26 01:58:33;;;;;;;54.53;50.80;;;;;;;19.20;100.00;100711.22;4990610;28;20050;-77
2021/08/26 02:01:01;;;;;;;54.25;50.65;;;;;;;19.28;100.00;100718.00;5107121;23;20058;-77
2021/08/26 02:03:28;;;;;;;60.03;56.03;;;;;;;19.26;100.00;100722.84;5006085;28;20050;-77
2021/08/26 02:05:54;;;;;;;58.13;54.13;;;;;;;19.05;100.00;100720.03;5009379;28;20073;-77
2021/08/26 02:08:21;;;;;;;58.05;54.00;;;;;;;19.23;100.00;100708.81;5009576;28;20076;-78
2021/08/26 02:10:48;;;;;;;60.10;55.85;;;;;;;19.29;100.00;100704.25;5008509;28;20061;-78
2021/08/26 02:13:14;;;;;;;67.28;62.47;;;;;;;19.01;100.00;100702.00;5005914;28;20046;-79
2021/08/26 02:15:42;;;;;;;65.10;60.70;;;;;;;19.07;100.00;100695.56;5005161;28;20042;-77
2021/08/26 02:18:10;;;;;;;77.18;72.18;;;;;;;19.04;100.00;100694.22;4998363;28;20470;-77
2021/08/26 02:20:37;;;;;;;65.47;60.88;;;;;;;19.10;100.00;100700.44;5006490;28;20049;-77
2021/08/26 02:23:04;;;;;;;70.32;65.28;;;;;;;18.90;100.00;100699.25;4999147;28;20058;-77
2021/08/26 02:25:31;;;;;;;78.90;73.72;;;;;;;18.78;100.00;100701.34;5001782;28;20065;-78
2021/08/26 02:27:58;;;;;;;72.80;67.88;;;;;;;18.85;100.00;100693.03;5003476;28;20054;-77
2021/08/26 02:30:24;;;;;;;70.22;65.43;;;;;;;18.90;100.00;100693.88;5002668;28;20058;-83
2021/08/26 02:32:52;;;;;;;69.45;64.63;;;;;;;18.76;100.00;100690.03;4993350;28;20042;-78
2021/08/26 02:35:20;;;;;;;57.80;53.60;;;;;;;18.52;100.00;100692.28;4998303;28;20120;-77
2021/08/26 02:37:47;;;;;;;75.32;70.53;;;;;;;18.66;100.00;100685.38;5002806;28;20050;-79
2021/08/26 02:40:14;;;;;;;60.85;56.47;;;;;;;18.51;100.00;100690.66;5002786;28;20057;-77
2021/08/26 02:42:41;;;;;;;60.70;56.53;;;;;;;18.49;100.00;100685.53;4998889;28;20058;-78
2021/08/26 02:45:08;;;;;;;63.13;58.88;;;;;;;18.40;100.00;100683.59;5001557;28;20130;-78
2021/08/26 02:47:35;;;;;;;64.40;60.10;;;;;;;18.43;100.00;100689.28;5002596;28;20426;-78
2021/08/26 02:50:01;;;;;;;61.20;57.10;;;;;;;18.39;100.00;100684.66;5001324;28;20553;-78
2021/08/26 02:52:30;;;;;;;60.42;56.33;;;;;;;18.50;100.00;100686.34;5005592;28;20049;-78
2021/08/26 02:54:56;;;;;;;56.40;52.40;;;;;;;18.37;100.00;100684.13;5007958;28;20121;-77
2021/08/26 02:57:23;;;;;;;53.70;49.97;;;;;;;18.28;100.00;100686.47;5005411;28;20415;-81
2021/08/26 02:59:50;;;;;;;60.50;56.33;;;;;;;18.30;100.00;100679.75;5004029;28;20062;-78
2021/08/26 03:02:17;;;;;;;64.95;60.90;;;;;;;18.10;100.00;100690.38;5010454;28;20062;-79
2021/08/26 03:04:43;;;;;;;60.70;56.80;;;;;;;18.12;100.00;100687.41;5007560;28;20053;-77
2021/08/26 03:07:10;;;;;;;65.30;60.78;;;;;;;18.18;100.00;100694.44;5008844;28;20528;-77
2021/08/26 03:09:38;;;;;;;57.38;53.38;;;;;;;18.17;100.00;100698.22;5004208;28;20042;-77
2021/08/26 03:12:05;;;;;;;58.55;54.45;;;;;;;17.99;100.00;100697.50;4999768;28;20127;-78
2021/08/26 03:14:33;;;;;;;58.22;54.03;;;;;;;17.93;100.00;100700.41;5001976;28;20133;-78
2021/08/26 03:16:59;;;;;;;60.08;55.58;;;;;;;17.77;100.00;100700.28;5010765;28;20541;-77
2021/08/26 03:19:26;;;;;;;68.65;63.88;;;;;;;17.87;100.00;100696.88;5008547;28;20046;-77
2021/08/26 03:21:53;;;;;;;63.10;58.70;;;;;;;17.83;100.00;100703.84;5001453;28;20046;-78
2021/08/26 03:24:20;;;;;;;63.70;59.10;;;;;;;17.57;100.00;100700.03;5006422;28;20121;-77
2021/08/26 03:26:48;;;;;;;60.17;55.60;;;;;;;17.79;100.00;100710.75;5001264;28;20056;-77
2021/08/26 03:29:15;;;;;;;55.72;51.60;;;;;;;17.82;100.00;100708.41;5002596;28;20116;-78
2021/08/26 03:31:41;;;;;;;63.35;58.78;;;;;;;17.86;100.00;100703.31;5001167;28;20117;-78
2021/08/26 03:34:08;;;;;;;57.80;53.80;;;;;;;17.83;100.00;100703.84;5008291;28;20056;-77
2021/08/26 03:36:35;;;;;;;56.92;53.03;;;;;;;17.66;100.00;100706.56;5000664;28;20054;-77
2021/08/26 03:39:02;;;;;;;62.85;58.75;;;;;;;17.75;100.00;100712.31;5000718;28;20049;-78
2021/08/26 03:41:28;;;;;;;50.38;46.67;;;;;;;17.49;100.00;100708.53;4998154;28;20557;-77
2021/08/26 03:43:57;;;;;;;48.78;45.17;;;;;;;17.51;100.00;100712.59;5005617;28;20053;-78
2021/08/26 03:46:23;;;;;;;52.45;48.85;;;;;;;17.48;100.00;100713.09;5003348;28;20058;-77
2021/08/26 03:48:50;;;;;;;55.17;51.38;;;;;;;17.49;100.00;100717.44;4993402;28;20129;-78
2021/08/26 03:51:17;;;;;;;48.35;45.05;;;;;;;17.60;100.00;100716.44;4999920;28;20054;-78
2021/08/26 03:53:43;;;;;;;47.30;44.10;;;;;;;17.64;100.00;100716.78;4999782;28;20247;-77
2021/08/26 03:56:10;;;;;;;51.83;48.33;;;;;;;17.54;100.00;100716.66;5005621;28;20053;-78
2021/08/26 03:58:37;;;;;;;46.13;43.13;;;;;;;17.59;100.00;100712.16;5002084;28;20044;-78
2021/08/26 04:01:06;;;;;;;52.92;49.70;;;;;;;17.54;100.00;100713.97;5000626;28;20076;-78
2021/08/26 04:03:33;;;;;;;56.20;52.60;;;;;;;17.49;100.00;100720.09;5007619;28;20046;-78
2021/08/26 04:06:01;;;;;;;58.78;55.17;;;;;;;17.48;100.00;100717.66;4992136;28;20054;-79
2021/08/26 04:08:27;;;;;;;54.35;51.05;;;;;;;17.62;100.00;100716.22;4999535;28;20058;-77
2021/08/26 04:10:54;;;;;;;51.67;48.47;;;;;;;17.67;100.00;100726.19;4996601;28;20054;-78
2021/08/26 04:13:21;;;;;;;61.65;57.90;;;;;;;17.84;100.00;100727.75;5001539;28;20042;-77
2021/08/26 04:15:48;;;;;;;57.35;53.72;;;;;;;20.68;100.00;100722.22;5001658;28;20525;-77
2021/08/26 04:18:17;;;;;;;54.78;51.58;;;;;;;19.75;100.00;100717.88;5008453;28;20125;-77
2021/08/26 04:20:43;;;;;;;68.65;65.15;;;;;;;18.46;100.00;100718.34;5007445;28;20102;-78
2021/08/26 04:23:10;;;;;;;55.63;52.00;;;;;;;18.35;100.00;100723.88;4997092;28;20057;-78
2021/08/26 04:25:37;;;;;;;59.55;55.95;;;;;;;18.25;100.00;100721.94;4997084;28;20066;-78
2021/08/26 04:28:04;;;;;;;52.03;48.83;;;;;;;18.25;100.00;100722.75;5001088;28;20541;-77
2021/08/26 04:30:31;;;;;;;44.50;41.60;;;;;;;18.25;100.00;100722.75;5000071;28;20053;-78
2021/08/26 04:32:58;;;;;;;43.13;40.13;;;;;;;18.18;100.00;100724.00;4994635;28;20047;-78
2021/08/26 04:35:26;;;;;;;47.38;44.42;;;;;;;18.35;100.00;100724.69;4997507;28;20211;-77
2021/08/26 04:37:53;;;;;;;45.88;42.63;;;;;;;18.38;100.00;100720.69;5002661;28;20479;-77
2021/08/26 04:40:20;;;;;;;49.17;45.40;;;;;;;18.35;100.00;100713.94;5001195;28;20497;-78
2021/08/26 04:42:46;;;;;;;48.03;43.97;;;;;;;18.32;100.00;100717.13;5001734;28;20085;-77
2021/08/26 04:45:13;;;;;;;46.58;43.17;;;;;;;18.45;100.00;100707.81;5001192;28;20108;-82
2021/08/26 04:47:40;;;;;;;41.13;38.22;;;;;;;18.52;100.00;100709.22;4992516;28;20058;-78
2021/08/26 04:50:07;;;;;;;40.67;37.67;;;;;;;18.63;100.00;100693.16;5002736;28;20049;-78
2021/08/26 04:52:36;;;;;;;42.90;39.75;;;;;;;18.69;100.00;100700.97;5003991;28;20049;-78
2021/08/26 04:55:03;;;;;;;47.03;43.97;;;;;;;18.48;100.00;100694.66;5003190;28;20418;-77
2021/08/26 04:57:29;;;;;;;40.55;37.65;;;;;;;18.85;100.00;100693.84;5002762;28;20089;-77
2021/08/26 04:59:56;;;;;;;46.45;43.30;;;;;;;22.84;100.00;100687.28;5004642;28;20054;-80
2021/08/26 05:02:23;;;;;;;33.65;31.48;;;;;;;23.56;100.00;100687.19;5006677;28;20372;-77
2021/08/26 05:04:50;;;;;;;36.38;33.75;;;;;;;19.77;100.00;100704.94;5010974;28;20057;-79
2021/08/26 05:07:16;;;;;;;44.58;41.47;;;;;;;18.95;100.00;100715.44;5010306;28;20049;-79
2021/08/26 05:09:45;;;;;;;52.90;49.30;;;;;;;18.74;100.00;100714.50;5007980;28;20065;-79
2021/08/26 05:12:11;;;;;;;49.63;46.25;;;;;;;20.62;100.00;100715.22;5003724;28;20066;-78
2021/08/26 05:14:38;;;;;;;43.70;40.50;;;;;;;20.03;100.00;100713.06;5009430;28;20121;-79
2021/08/26 05:17:05;;;;;;;42.67;39.30;;;;;;;19.10;100.00;100709.31;5013839;28;20053;-78
2021/08/26 05:19:32;;;;;;;43.17;40.17;;;;;;;18.82;100.00;100715.91;5007358;28;20053;-81
2021/08/26 05:22:00;;;;;;;45.80;42.65;;;;;;;20.98;100.00;100709.72;5010330;28;20123;-79
2021/08/26 05:24:27;;;;;;;40.33;37.90;;;;;;;21.83;100.00;100697.97;5009625;28;20125;-81
2021/08/26 05:26:55;;;;;;;43.28;40.03;;;;;;;19.23;100.00;100711.50;5008603;28;20112;-79
2021/08/26 05:29:22;;;;;;;47.25;43.95;;;;;;;18.88;100.00;100705.94;5005379;28;20058;-79
2021/08/26 05:31:49;;;;;;;45.03;41.85;;;;;;;18.72;100.00;100710.41;5013335;28;20060;-79
2021/08/26 05:34:16;;;;;;;47.40;44.20;;;;;;;18.83;100.00;100716.72;5010404;28;20042;-80
2021/08/26 05:36:43;;;;;;;44.10;40.70;;;;;;;19.13;100.00;100713.34;5001981;28;20069;-79
2021/08/26 05:39:09;;;;;;;45.13;41.92;;;;;;;18.86;100.00;100713.50;5009142;28;20053;-79
2021/08/26 05:41:36;;;;;;;43.20;39.92;;;;;;;19.04;100.00;100715.75;5003160;28;20057;-79
2021/08/26 05:44:05;;;;;;;42.33;39.08;;;;;;;19.23;100.00;100714.19;5008275;28;20410;-78
2021/08/26 05:46:31;;;;;;;42.13;39.13;;;;;;;19.35;100.00;100716.66;5002263;28;20054;-83
2021/08/26 05:48:58;;;;;;;48.40;45.22;;;;;;;19.53;100.00;100722.66;5007622;28;20375;-80
2021/08/26 05:51:25;;;;;;;44.97;41.97;;;;;;;19.61;100.00;100714.06;5010759;28;20490;-83
2021/08/26 05:53:52;;;;;;;39.78;37.08;;;;;;;19.83;100.00;100708.47;5009947;28;20494;-78
2021/08/26 05:56:19;;;;;;;45.55;42.53;;;;;;;21.08;100.00;100703.47;5008493;28;20097;-79
2021/08/26 05:58:46;;;;;;;45.83;42.92;;;;;;;19.85;100.00;100703.63;5001798;28;20498;-78
2021/08/26 06:01:14;;;;;;;43.20;39.83;;;;;;;19.79;100.00;100696.59;5001308;28;20065;-78
2021/08/26 06:03:41;;;;;;;43.13;40.13;;;;;;;21.23;100.00;100684.50;5011000;28;20441;-77
2021/08/26 06:06:08;;;;;;;36.90;34.03;;;;;;;19.80;100.00;100687.44;5002896;28;20049;-77
2021/08/26 06:08:35;;;;;;;34.28;31.45;;;;;;;19.49;100.00;100690.06;5001455;28;20128;-76
2021/08/26 06:11:01;;;;;;;35.80;32.75;;;;;;;20.32;100.00;100686.34;5001538;28;20058;-78
2021/08/26 06:13:28;;;;;;;35.75;33.05;;;;;;;19.87;100.00;100696.06;5003031;28;20140;-78
2021/08/26 06:15:55;;;;;;;38.83;35.85;;;;;;;19.77;100.00;100691.47;5003773;28;20105;-78
2021/08/26 06:18:23;;;;;;;36.50;33.65;;;;;;;20.06;100.00;100689.09;5012869;28;20058;-77
2021/08/26 06:20:50;;;;;;;37.03;34.63;;;;;;;19.84;100.00;100692.00;5000960;28;20050;-76
2021/08/26 06:23:17;;;;;;;34.15;31.88;;;;;;;19.81;100.00;100683.66;5001627;28;20439;-78
2021/08/26 06:25:43;;;;;;;33.63;31.67;;;;;;;20.17;100.00;100676.38;5003183;28;20050;-78
2021/08/26 06:28:10;;;;;;;39.88;37.40;;;;;;;20.39;100.00;100678.78;5003168;28;20058;-78
2021/08/26 06:30:37;;;;;;;38.38;36.00;;;;;;;20.10;100.00;100673.97;5002907;28;20451;-81
2021/08/26 06:33:04;;;;;;;39.90;37.38;;;;;;;20.18;100.00;100679.88;5007662;28;20050;-78
2021/08/26 06:35:33;;;;;;;36.20;34.00;;;;;;;20.61;100.00;100681.22;5001689;28;20120;-77
2021/08/26 06:37:59;;;;;;;37.33;34.72;;;;;;;20.59;100.00;100676.09;5003029;28;20124;-77
2021/08/26 06:40:26;;;;;;;32.63;30.73;;;;;;;20.76;100.00;100667.69;5002649;28;20050;-76
2021/08/26 06:42:53;;;;;;;35.35;33.28;;;;;;;20.77;100.00;100668.50;5002772;28;20061;-79
2021/08/26 06:45:20;;;;;;;37.50;35.20;;;;;;;22.00;100.00;100676.75;5003024;28;20042;-78
2021/08/26 06:47:47;;;;;;;36.88;34.55;;;;;;;20.86;100.00;100693.03;4995935;28;20054;-77
2021/08/26 06:50:13;;;;;;;31.83;29.92;;;;;;;21.06;100.00;100690.25;4998318;28;20054;-77
2021/08/26 06:52:41;;;;;;;32.17;30.30;;;;;;;20.63;100.00;100691.72;5003051;28;20061;-77
2021/08/26 06:55:09;;;;;;;31.15;28.77;;;;;;;20.70;100.00;100690.38;5002246;28;20093;-76
2021/08/26 06:57:35;;;;;;;27.30;25.40;;;;;;;20.73;100.00;100689.03;5001931;28;20107;-78
2021/08/26 07:00:02;;;;;;;30.02;27.92;;;;;;;20.81;100.00;100691.13;5000305;28;20483;-78
2021/08/26 07:02:29;;;;;;;29.33;27.35;;;;;;;21.41;100.00;100691.19;5003382;28;20050;-78
2021/08/26 07:04:56;;;;;;;29.88;27.77;;;;;;;21.07;100.00;100688.38;5006184;28;20077;-79
2021/08/26 07:07:24;;;;;;;30.20;28.05;;;;;;;21.27;100.00;100677.44;5002362;28;20424;-77
2021/08/26 07:09:52;;;;;;;30.95;28.75;;;;;;;22.29;100.00;100682.19;5001284;28;20513;-77
2021/08/26 07:12:18;;;;;;;30.58;28.27;;;;;;;21.56;100.00;100699.22;4999975;28;20105;-77
2021/08/26 07:14:45;;;;;;;28.48;26.58;;;;;;;21.10;100.00;100707.50;4999782;28;20561;-77
2021/08/26 07:17:12;;;;;;;32.45;30.33;;;;;;;21.74;100.00;100700.44;5006303;28;20050;-78
2021/08/26 07:19:39;;;;;;;29.23;27.42;;;;;;;21.49;100.00;100688.72;5008120;28;20050;-78
2021/08/26 07:22:06;;;;;;;31.42;29.48;;;;;;;22.17;100.00;100690.66;5000783;28;20388;-77
2021/08/26 07:24:32;;;;;;;30.17;28.27;;;;;;;21.44;100.00;100701.44;5000103;28;20046;-78
2021/08/26 07:27:00;;;;;;;28.00;26.13;;;;;;;21.95;100.00;100704.63;5001018;28;20072;-76
2021/08/26 07:29:27;;;;;;;28.90;27.10;;;;;;;21.62;100.00;100703.50;5001547;28;20054;-78
2021/08/26 07:31:54;;;;;;;30.63;28.63;;;;;;;21.28;100.00;100706.91;5001452;28;20045;-77
2021/08/26 07:34:21;;;;;;;30.05;28.15;;;;;;;22.02;100.00;100704.28;5008712;28;20065;-77
2021/08/26 07:36:48;;;;;;;28.02;26.23;;;;;;;22.74;100.00;100699.03;5000264;28;20049;-77
2021/08/26 07:39:14;;;;;;;29.35;27.35;;;;;;;22.48;100.00;100693.13;5003630;28;20054;-78
2021/08/26 07:41:41;;;;;;;31.08;29.15;;;;;;;22.95;100.00;100693.44;5008318;28;20124;-78
2021/08/26 07:44:09;;;;;;;30.75;28.67;;;;;;;21.89;100.00;100689.53;4995803;28;20124;-78
2021/08/26 07:46:36;;;;;;;32.80;30.77;;;;;;;22.41;100.00;100684.50;5000093;28;20057;-77
2021/08/26 07:49:04;;;;;;;33.38;31.17;;;;;;;21.76;100.00;100692.06;5000558;28;20477;-78
2021/08/26 07:51:31;;;;;;;31.80;29.90;;;;;;;22.60;100.00;100682.69;5001120;28;20069;-78
2021/08/26 07:53:59;;;;;;;29.80;27.85;;;;;;;22.52;100.00;100687.94;5000928;28;20089;-79
2021/08/26 07:56:26;;;;;;;32.00;30.20;;;;;;;23.44;100.00;100676.00;5000074;28;20405;-77
2021/08/26 07:58:52;;;;;;;30.08;28.08;;;;;;;23.03;100.00;100677.34;4999325;28;20411;-77
2021/08/26 08:01:21;;;;;;;28.75;26.83;;;;;;;22.57;100.00;100685.97;5000426;28;20054;-78
2021/08/26 08:03:48;;;;;;;32.13;30.10;;;;;;;23.31;100.00;100672.91;5010131;28;20049;-76
2021/08/26 08:06:16;;;;;;;30.50;28.55;;;;;;;23.11;100.00;100685.91;4991828;28;20471;-77
2021/08/26 08:08:43;;;;;;;32.00;29.98;;;;;;;23.94;100.00;100687.22;5003188;28;20145;-77
2021/08/26 08:11:09;;;;;;;29.95;28.05;;;;;;;23.46;100.00;100674.59;4998440;28;20062;-77
2021/08/26 08:13:37;;;;;;;30.75;28.65;;;;;;;23.54;100.00;100668.53;4999848;28;20061;-77
2021/08/26 08:16:04;;;;;;;31.50;29.60;;;;;;;23.66;100.00;100673.50;5006874;28;20133;-83
2021/08/26 08:18:32;;;;;;;31.27;29.27;;;;;;;23.01;100.00;100676.03;5011819;28;20057;-81
2021/08/26 08:21:02;;;;;;;29.67;27.73;;;;;;;22.92;100.00;100664.19;5000018;28;20435;-78
2021/08/26 08:23:29;;;;;;;29.10;27.20;;;;;;;23.21;100.00;100658.72;5001581;28;20088;-80
2021/08/26 08:25:55;;;;;;;33.30;31.30;;;;;;;23.57;100.00;100661.72;5009566;28;20042;-77
2021/08/26 08:28:22;;;;;;;31.80;29.85;;;;;;;23.85;100.00;100657.25;5001312;28;20125;-76
2021/08/26 08:30:49;;;;;;;32.50;30.50;;;;;;;23.22;100.00;100657.63;5005825;28;20135;-78
2021/08/26 08:33:17;;;;;;;28.67;26.63;;;;;;;23.87;100.00;100655.00;5011149;28;20423;-78
2021/08/26 08:35:45;;;;;;;31.75;29.25;;;;;;;24.36;100.00;100655.56;5002955;28;20054;-77
2021/08/26 08:38:11;;;;;;;30.52;28.52;;;;;;;24.80;100.00;100651.47;5004375;28;20066;-78
2021/08/26 08:40:39;;;;;;;28.55;26.45;;;;;;;25.59;92.02;100635.59;5005409;28;20150;-81
2021/08/26 08:43:06;;;;;;;30.23;28.23;;;;;;;26.05;94.22;100636.41;5005114;28;20053;-77
2021/08/26 08:45:33;;;;;;;29.80;27.90;;;;;;;25.89;82.78;100635.19;5005265;28;20049;-77
2021/08/26 08:48:01;;;;;;;27.48;25.77;;;;;;;25.02;93.30;100635.22;5013167;28;20169;-78
2021/08/26 08:50:28;;;;;;;26.38;24.67;;;;;;;25.74;87.76;100641.78;5004583;28;20061;-77
2021/08/26 08:52:57;;;;;;;26.65;24.95;;;;;;;24.90;94.25;100640.38;5005270;28;20512;-78
2021/08/26 08:55:24;;;;;;;30.48;28.30;;;;;;;24.59;92.84;100642.91;5007161;28;20463;-77
2021/08/26 08:57:51;;;;;;;30.00;28.10;;;;;;;24.59;91.02;100638.28;5005960;28;20061;-78
2021/08/26 09:00:20;;;;;;;29.45;27.58;;;;;;;24.28;95.08;100637.25;5004534;28;20050;-78
2021/08/26 09:02:47;;;;;;;29.02;27.02;;;;;;;24.52;93.92;100627.03;5005905;28;20486;-78
2021/08/26 09:05:14;;;;;;;26.90;25.20;;;;;;;24.99;87.15;100616.03;5006235;28;20488;-77
2021/08/26 09:07:41;;;;;;;29.67;27.77;;;;;;;25.20;86.06;100616.41;5004880;28;20069;-77
2021/08/26 09:10:10;;;;;;;27.35;25.58;;;;;;;24.67;93.60;100626.72;5004426;28;20479;-77
2021/08/26 09:12:49;;;;;;;28.63;26.83;;;;;;;24.75;98.35;100622.53;5004481;28;20124;-77
2021/08/26 09:15:18;;;;;;;27.48;25.40;;;;;;;24.77;89.94;100623.00;5004034;28;20046;-78
2021/08/26 09:17:46;;;;;;;26.95;25.02;;;;;;;24.83;88.60;100618.28;5006456;28;20407;-77
2021/08/26 09:20:15;;;;;;;29.58;27.77;;;;;;;24.61;84.63;100619.78;5006433;28;20050;-77
2021/08/26 09:22:42;;;;;;;33.30;31.27;;;;;;;24.23;89.38;100622.66;5004399;28;20111;-77
2021/08/26 09:25:13;;;;;;;31.52;29.45;;;;;;;24.35;90.40;100621.38;5004119;28;20053;-77
2021/08/26 09:27:42;;;;;;;31.02;29.17;;;;;;;24.39;80.83;100608.81;5005798;28;20494;-77
2021/08/26 09:30:11;;;;;;;30.30;28.60;;;;;;;25.07;80.89;100610.69;5002664;28;20057;-78
2021/08/26 09:32:41;;;;;;;30.30;28.50;;;;;;;25.52;80.81;100609.97;5005588;28;20054;-77
2021/08/26 09:35:12;;;;;;;29.63;27.88;;;;;;;25.28;76.50;100607.53;5005847;28;20494;-77
2021/08/26 09:37:45;;;;;;;31.52;29.83;;;;;;;25.25;70.78;100611.66;5003885;28;20513;-78
2021/08/26 09:40:14;;;;;;;34.97;33.10;;;;;;;24.73;82.85;100629.34;5003999;28;20058;-76
2021/08/26 09:42:41;;;;;;;30.33;28.48;;;;;;;24.42;91.43;100632.69;5003888;28;20454;-77
2021/08/26 09:45:20;;;;;;;32.20;30.25;;;;;;;25.11;100.00;100619.00;5002825;28;20099;-78
2021/08/26 09:48:00;;;;;;;27.67;25.98;;;;;;;24.86;83.96;100609.50;4994401;28;20479;-77
2021/08/26 09:50:43;;;;;;;29.45;27.63;;;;;;;24.96;84.25;100631.00;5006486;28;20050;-79
2021/08/26 09:53:11;;;;;;;28.73;26.92;;;;;;;24.11;85.85;100643.22;4999257;28;20054;-79
2021/08/26 09:55:57;;;;;;;27.58;25.77;;;;;;;23.96;85.78;100639.69;5007358;28;20049;-77
2021/08/26 09:58:25;;;;;;;30.23;28.30;;;;;;;24.20;86.93;100622.44;5000051;28;20186;-76
2021/08/26 10:01:13;;;;;;;28.77;26.95;;;;;;;24.39;93.16;100620.47;5003250;28;20050;-78
2021/08/26 10:03:40;;;;;;;28.33;26.52;;;;;;;24.39;88.46;100615.03;5011163;28;20058;-77
2021/08/26 10:06:07;;;;;;;30.40;28.50;;;;;;;23.91;95.59;100634.34;5004619;28;20054;-77
2021/08/26 10:08:34;;;;;;;27.33;25.30;;;;;;;24.19;100.00;100620.84;5000548;28;20065;-77
2021/08/26 10:11:04;;;;;;;32.67;30.88;;;;;;;24.41;98.56;100615.53;5001665;28;20121;-78
2021/08/26 10:13:31;;;;;;;30.90;29.00;;;;;;;24.46;94.93;100614.66;5003297;28;20053;-79
2021/08/26 10:15:58;;;;;;;29.00;27.20;;;;;;;24.34;91.48;100620.56;5000028;28;20101;-79
2021/08/26 10:18:27;;;;;;;28.95;27.17;;;;;;;24.33;98.49;100618.16;5010777;28;20061;-79
2021/08/26 10:20:54;;;;;;;33.08;31.17;;;;;;;24.92;100.00;100608.28;5001245;28;20491;-78
2021/08/26 10:23:22;;;;;;;30.75;28.80;;;;;;;25.51;89.99;100619.25;5001121;28;20057;-78
2021/08/26 10:25:50;;;;;;;31.02;29.02;;;;;;;25.02;84.19;100629.78;5005560;28;20049;-78
2021/08/26 10:28:19;;;;;;;32.10;29.90;;;;;;;24.87;90.11;100633.66;5000174;28;20058;-82
2021/08/26 10:30:46;;;;;;;30.98;28.88;;;;;;;24.49;93.46;100641.22;5003278;28;20088;-77
2021/08/26 10:33:14;;;;;;;29.92;27.83;;;;;;;24.35;95.24;100648.50;5008816;28;20127;-78
2021/08/26 10:36:00;;;;;;;31.92;29.85;;;;;;;23.96;97.83;100645.13;5000601;28;20054;-78
2021/08/26 10:38:29;;;;;;;31.55;29.67;;;;;;;24.15;88.42;100626.06;5008875;28;20517;-79
2021/08/26 10:40:56;;;;;;;29.05;27.27;;;;;;;23.92;93.15;100627.81;5010940;28;20133;-78
2021/08/26 10:43:35;;;;;;;30.75;28.85;;;;;;;23.89;94.00;100631.13;5002669;28;20077;-79
2021/08/26 10:46:04;;;;;;;30.02;27.98;;;;;;;23.78;100.00;100621.53;5000709;28;20058;-77
2021/08/26 10:48:31;;;;;;;29.30;27.05;;;;;;;24.11;100.00;100629.66;5010677;28;20065;-78
2021/08/26 10:51:12;;;;;;;28.55;26.55;;;;;;;23.88;100.00;100640.38;5006590;28;20493;-78
2021/08/26 10:53:41;;;;;;;29.35;27.13;;;;;;;24.16;100.00;100646.66;5005010;28;20045;-77
2021/08/26 10:56:18;;;;;;;29.52;27.63;;;;;;;24.30;100.00;100635.84;5008404;28;20092;-78
2021/08/26 10:58:47;;;;;;;29.90;27.73;;;;;;;23.67;100.00;100625.50;5001081;28;20057;-77
2021/08/26 11:01:32;;;;;;;30.90;28.80;;;;;;;23.45;100.00;100636.94;4998136;28;20069;-78
2021/08/26 11:04:00;;;;;;;27.98;25.77;;;;;;;24.02;100.00;100639.59;5008066;28;20120;-77
2021/08/26 11:06:43;;;;;;;30.15;28.05;;;;;;;23.10;100.00;100625.53;5006295;28;20548;-79
2021/08/26 11:09:30;;;;;;;28.55;26.45;;;;;;;23.02;100.00;100624.25;5013580;28;20072;-77
2021/08/26 11:12:03;;;;;;;31.25;29.25;;;;;;;22.98;100.00;100622.44;5002019;28;20128;-77